Time;durP1;ratioP1;P1;durP2;ratioP2;P2;SDS_P1;SDS_P2;PMS_P1;PMS_P2;Temp;Humidity;BMP_temperature;BMP_pressure;BME280_temperature;BME280_humidity;BME280_pressure;Samples;Min_cycle;Max_cycle;Signal;HPM_P1;HPM_P2
2022/08/17 00:02:05;;;;;;;5.18;3.30;;;23.40;84.60;;;23.99;81.87;100286.78;5167832;28;20505;-85
2022/08/17 00:04:37;;;;;;;4.93;3.20;;;23.30;85.10;;;23.95;82.24;100286.00;5166564;28;20141;-85
2022/08/17 00:07:09;;;;;;;4.18;3.45;;;23.30;86.20;;;23.92;82.53;100291.41;5166239;28;20046;-86
2022/08/17 00:09:41;;;;;;;4.15;3.33;;;23.30;85.80;;;23.90;82.54;100287.94;5167988;28;20046;-86
2022/08/17 00:12:13;;;;;;;4.95;3.28;;;23.30;86.10;;;23.89;82.59;100277.34;5166789;28;20050;-85
2022/08/17 00:14:45;;;;;;;6.22;3.25;;;23.20;86.40;;;23.88;82.28;100281.78;5168047;28;20050;-86
2022/08/17 00:17:19;;;;;;;5.68;3.50;;;23.20;86.40;;;23.88;82.73;100284.44;5166574;28;20054;-86
2022/08/17 00:19:51;;;;;;;6.90;3.35;;;23.20;86.60;;;23.88;82.76;100289.78;5166263;28;20054;-86
2022/08/17 00:22:23;;;;;;;6.60;3.47;;;23.20;87.00;;;23.84;82.70;100282.78;5166293;28;20050;-86
2022/08/17 00:24:56;;;;;;;5.50;3.38;;;23.20;87.10;;;23.84;82.62;100277.44;5166941;28;20487;-86
2022/08/17 00:27:28;;;;;;;5.82;3.90;;;23.20;87.20;;;23.83;82.84;100281.91;5166355;28;20058;-86
2022/08/17 00:30:00;;;;;;;5.20;3.33;;;23.20;87.60;;;23.82;83.34;100282.81;5167986;28;20042;-86
2022/08/17 00:32:39;;;;;;;4.95;3.58;;;23.20;87.80;;;23.82;83.21;100279.28;5166550;28;20046;-86
2022/08/17 00:35:18;;;;;;;4.10;3.30;;;23.20;88.00;;;23.82;83.20;100269.53;5166944;28;20396;-86
2022/08/17 00:37:51;;;;;;;4.20;3.10;;;23.20;88.30;;;23.82;83.91;100266.00;5182822;28;20054;-85
2022/08/17 00:40:23;;;;;;;4.15;3.15;;;23.20;88.70;;;23.80;83.86;100266.03;5167428;28;20042;-85
2022/08/17 00:42:55;;;;;;;3.45;3.00;;;23.20;88.90;;;23.80;84.16;100270.50;5166135;28;20046;-85
2022/08/17 00:45:27;;;;;;;4.65;3.05;;;23.10;89.30;;;23.81;83.88;100277.56;5166273;28;20046;-85
2022/08/17 00:48:01;;;;;;;3.92;2.90;;;23.10;89.20;;;23.81;84.11;100266.91;5165638;28;20050;-86
2022/08/17 00:50:34;;;;;;;4.63;2.85;;;23.10;89.40;;;23.80;84.28;100265.16;5169419;28;20398;-85
2022/08/17 00:53:07;;;;;;;5.35;3.08;;;23.10;89.70;;;23.78;84.29;100262.53;5166969;28;20209;-86
2022/08/17 00:55:39;;;;;;;3.85;2.95;;;23.10;90.00;;;23.77;83.97;100270.56;5166743;28;20046;-86
2022/08/17 00:58:12;;;;;;;4.15;2.70;;;23.20;89.90;;;23.76;84.20;100268.81;5168627;28;20057;-85
2022/08/17 01:00:46;;;;;;;4.97;3.20;;;23.10;90.00;;;23.76;83.44;100268.81;5166786;28;20043;-85
2022/08/17 01:03:25;;;;;;;4.68;3.20;;;23.10;89.70;;;23.74;83.44;100255.56;5167399;28;20137;-85
2022/08/17 01:06:00;;;;;;;4.75;3.13;;;23.10;89.70;;;23.71;83.41;100265.41;5167751;28;20108;-85
2022/08/17 01:08:33;;;;;;;3.80;3.20;;;23.10;89.80;;;23.67;83.18;100258.41;5167764;28;20074;-86
2022/08/17 01:11:06;;;;;;;4.50;3.20;;;23.00;89.90;;;23.65;82.76;100250.47;5182660;28;20047;-88
2022/08/17 01:13:42;;;;;;;4.68;3.10;;;23.00;89.60;;;23.65;82.62;100249.59;5166246;28;20421;-84
2022/08/17 01:16:19;;;;;;;3.88;2.97;;;23.00;89.50;;;23.63;82.36;100257.63;5168528;28;20042;-84
2022/08/17 01:18:55;;;;;;;3.75;2.80;;;23.00;89.40;;;23.61;82.25;100256.81;5168641;28;20050;-84
2022/08/17 01:21:41;;;;;;;3.60;2.75;;;23.00;89.40;;;23.60;82.33;100251.47;5185707;28;20535;-84
2022/08/17 01:24:15;;;;;;;4.35;2.88;;;22.90;89.60;;;23.59;82.55;100260.38;5169849;28;20397;-84
2022/08/17 01:26:48;;;;;;;3.97;2.92;;;22.90;89.70;;;23.55;83.03;100249.84;5169228;28;20050;-84
2022/08/17 01:29:21;;;;;;;3.17;2.55;;;22.90;89.90;;;23.52;83.29;100257.88;5171237;28;20097;-84
2022/08/17 01:31:58;;;;;;;3.90;2.85;;;22.90;90.10;;;23.52;82.71;100265.00;5171457;28;20129;-84
2022/08/17 01:34:31;;;;;;;4.20;2.80;;;22.90;90.00;;;23.51;82.47;100272.09;5171034;28;20049;-84
2022/08/17 01:37:03;;;;;;;3.20;2.90;;;22.90;90.00;;;23.53;82.20;100269.38;5170371;28;20053;-84
2022/08/17 01:39:43;;;;;;;4.32;2.95;;;22.90;89.80;;;23.54;82.38;100268.50;5169597;28;20057;-84
2022/08/17 01:42:23;;;;;;;4.30;2.92;;;22.90;89.90;;;23.54;82.11;100268.50;5172744;28;20069;-84
2022/08/17 01:44:58;;;;;;;4.30;2.72;;;22.90;89.80;;;23.52;82.58;100273.84;5177010;28;20046;-84
2022/08/17 01:47:31;;;;;;;3.58;2.78;;;22.90;90.00;;;23.51;82.32;100274.75;5178231;28;20126;-84
2022/08/17 01:50:10;;;;;;;3.90;2.85;;;22.90;89.90;;;23.49;82.33;100273.94;5167017;28;20042;-84
2022/08/17 01:52:44;;;;;;;3.83;2.80;;;22.90;90.00;;;23.47;82.50;100270.47;5166444;28;20050;-84
2022/08/17 01:55:22;;;;;;;3.90;2.67;;;22.90;90.00;;;23.42;82.84;100275.00;5168275;28;20042;-84
2022/08/17 01:57:54;;;;;;;4.05;2.75;;;22.80;90.10;;;23.37;83.26;100282.22;5166604;28;20577;-84
2022/08/17 02:00:27;;;;;;;4.22;3.10;;;22.80;90.30;;;23.32;83.44;100272.63;5170427;28;20058;-84
2022/08/17 02:02:59;;;;;;;3.45;2.90;;;22.70;90.40;;;23.25;83.73;100271.91;5171936;28;20050;-84
2022/08/17 02:05:33;;;;;;;3.70;2.78;;;22.70;90.50;;;23.18;84.55;100275.63;5172161;28;20471;-85
2022/08/17 02:08:06;;;;;;;4.18;3.15;;;22.60;90.80;;;23.10;85.25;100274.97;5172095;28;20076;-84
2022/08/17 02:10:39;;;;;;;4.13;2.83;;;22.50;91.10;;;23.04;85.42;100272.44;5171017;28;20050;-86
2022/08/17 02:13:12;;;;;;;3.88;2.90;;;22.50;91.50;;;22.97;85.78;100266.41;5187924;28;20061;-85
2022/08/17 02:15:44;;;;;;;4.20;2.90;;;22.40;91.40;;;22.91;86.09;100275.41;5170001;28;20054;-85
2022/08/17 02:18:17;;;;;;;4.85;3.33;;;22.40;91.70;;;22.85;86.33;100269.34;5170887;28;20062;-85
2022/08/17 02:20:49;;;;;;;5.30;3.38;;;22.30;91.80;;;22.77;86.96;100266.84;5170654;28;20047;-85
2022/08/17 02:23:23;;;;;;;3.65;2.72;;;22.20;92.00;;;22.72;87.40;100266.09;5170397;28;20046;-85
2022/08/17 02:25:59;;;;;;;4.05;2.70;;;22.20;92.30;;;22.66;87.95;100267.09;5186587;28;20050;-85
2022/08/17 02:28:31;;;;;;;4.43;3.10;;;22.10;92.50;;;22.61;88.09;100262.78;5170554;28;20078;-85
2022/08/17 02:31:06;;;;;;;3.90;3.05;;;22.00;92.70;;;22.55;88.20;100263.81;5170257;28;20153;-85
2022/08/17 02:36:15;;;;;;;4.10;3.05;;;21.90;93.00;;;22.45;88.68;100262.28;5301484;23;20497;-72
2022/08/17 02:38:47;;;;;;;4.25;2.83;;;21.90;93.20;;;22.41;88.88;100261.47;5207889;28;20410;-73
2022/08/17 02:41:20;;;;;;;4.55;3.20;;;21.90;93.40;;;22.39;89.06;100257.97;5190131;28;20041;-73
2022/08/17 02:43:53;;;;;;;3.97;3.05;;;21.80;93.50;;;22.39;88.63;100267.72;5207753;28;20135;-72
2022/08/17 02:46:25;;;;;;;3.90;2.85;;;21.80;93.50;;;22.39;88.11;100257.09;5207676;28;20096;-71
2022/08/17 02:48:57;;;;;;;5.25;3.10;;;21.80;93.40;;;22.38;87.42;100266.84;5189952;28;20482;-71
2022/08/17 02:51:29;;;;;;;5.05;2.80;;;21.80;93.20;;;22.38;87.13;100269.50;5189853;28;20055;-71
2022/08/17 02:54:01;;;;;;;4.75;2.78;;;21.80;93.10;;;22.40;86.38;100262.38;5207722;28;20129;-72
2022/08/17 02:56:35;;;;;;;5.55;2.85;;;21.80;92.90;;;22.42;86.14;100267.66;5207532;28;20077;-71
2022/08/17 02:59:07;;;;;;;3.25;2.50;;;21.80;92.80;;;22.43;85.83;100264.06;5207376;28;20052;-71
2022/08/17 03:01:39;;;;;;;3.50;2.42;;;21.90;92.80;;;22.44;85.87;100268.50;5207244;28;20037;-71
2022/08/17 03:04:11;;;;;;;3.72;2.63;;;21.90;92.80;;;22.43;85.87;100264.97;5207456;28;20056;-72
2022/08/17 03:06:43;;;;;;;3.15;2.40;;;21.90;92.80;;;22.41;86.06;100265.91;5207251;28;20037;-71
2022/08/17 03:09:16;;;;;;;4.43;3.05;;;21.80;92.80;;;22.37;86.35;100265.13;5206663;28;20068;-72
2022/08/17 03:11:50;;;;;;;2.83;2.20;;;21.80;93.00;;;22.34;86.73;100259.84;5207217;28;20045;-71
2022/08/17 03:14:22;;;;;;;2.95;2.42;;;21.80;93.10;;;22.30;87.28;100263.50;5189326;28;20050;-71
2022/08/17 03:16:55;;;;;;;3.45;2.67;;;21.70;93.30;;;22.24;87.39;100260.97;5207177;28;20055;-71
2022/08/17 03:19:27;;;;;;;4.10;2.80;;;21.70;93.40;;;22.19;87.88;100260.19;5207081;28;20072;-72
2022/08/17 03:21:59;;;;;;;3.25;2.50;;;21.70;93.90;;;22.15;88.12;100253.19;5206976;28;20486;-73
2022/08/17 03:24:31;;;;;;;3.10;2.53;;;21.60;93.70;;;22.10;87.69;100253.28;5206931;28;20461;-72
2022/08/17 03:27:05;;;;;;;3.53;2.50;;;21.60;93.60;;;22.09;86.87;100255.97;5189059;28;20049;-73
2022/08/17 03:29:37;;;;;;;3.83;3.03;;;21.50;93.40;;;22.10;85.91;100250.63;5206649;28;20124;-74
2022/08/17 03:32:15;;;;;;;3.55;2.83;;;21.50;93.00;;;22.13;85.13;100255.00;5207041;28;20037;-72
2022/08/17 03:34:47;;;;;;;4.28;2.92;;;21.60;92.80;;;22.16;85.06;100250.50;5206555;28;20099;-71
2022/08/17 03:37:19;;;;;;;3.72;2.58;;;21.60;92.80;;;22.19;85.07;100262.84;5206705;28;20072;-72
2022/08/17 03:39:53;;;;;;;2.92;2.42;;;21.60;92.70;;;22.21;84.73;100255.72;5188843;28;20049;-72
2022/08/17 03:42:28;;;;;;;4.32;2.60;;;21.70;92.60;;;22.23;84.12;100255.69;5207029;28;20264;-72
2022/08/17 03:45:02;;;;;;;3.35;2.72;;;21.70;92.40;;;22.24;83.15;100263.63;5206449;28;20128;-72
2022/08/17 03:58:58;;;;;;;3.42;2.72;;;21.80;91.90;;;22.27;82.13;100271.50;5188404;28;20069;-73
2022/08/17 04:01:30;;;;;;;3.88;2.67;;;21.70;91.50;;;22.30;82.01;100271.47;5188380;28;20144;-71
2022/08/17 04:04:03;;;;;;;3.88;2.83;;;21.70;91.50;;;22.32;81.88;100276.75;5206340;28;20517;-71
2022/08/17 04:06:35;;;;;;;4.03;3.10;;;21.80;91.40;;;22.33;81.29;100276.69;5206110;28;20056;-72
2022/08/17 04:09:08;;;;;;;3.08;2.67;;;21.80;91.10;;;22.35;80.64;100280.19;5205973;28;20465;-72
2022/08/17 04:11:41;;;;;;;4.25;2.92;;;21.80;90.90;;;22.35;80.44;100277.53;5206078;28;20049;-71
2022/08/17 04:14:14;;;;;;;4.05;3.05;;;21.80;90.70;;;22.37;80.32;100270.41;5206156;28;20137;-71
2022/08/17 04:16:46;;;;;;;4.18;2.72;;;21.90;90.70;;;22.41;80.41;100263.25;5206018;28;20406;-73
2022/08/17 04:19:19;;;;;;;3.45;2.47;;;21.90;90.70;;;22.44;79.98;100261.41;5205605;28;20068;-72
2022/08/17 04:21:51;;;;;;;3.72;2.47;;;21.90;90.50;;;22.50;80.88;100280.78;5205071;28;20399;-73
2022/08/17 04:24:23;;;;;;;4.68;3.00;;;22.00;91.10;;;22.46;80.27;100275.53;5206059;28;20102;-72
2022/08/17 04:26:55;;;;;;;4.43;2.80;;;22.00;90.60;;;22.48;80.18;100275.47;5205675;28;20069;-71
2022/08/17 04:29:29;;;;;;;3.08;2.28;;;22.00;90.60;;;22.51;80.00;100271.91;5187752;28;20509;-71
2022/08/17 04:32:03;;;;;;;4.63;2.80;;;22.00;90.40;;;22.53;79.40;100286.00;5187950;28;20422;-72
2022/08/17 04:34:35;;;;;;;4.75;2.88;;;22.00;90.30;;;22.52;79.47;100278.94;5205680;28;20553;-73
2022/08/17 04:37:07;;;;;;;4.82;3.00;;;22.00;90.20;;;22.54;79.32;100277.13;5205685;28;20056;-72
2022/08/17 04:42:05;;;;;;;3.50;2.75;;;22.00;90.10;;;22.56;79.07;100291.25;5205503;28;20053;-71
2022/08/17 04:42:31;;;;;;;3.78;2.67;;;22.10;90.00;;;22.59;78.78;100286.75;5205304;28;20052;-71
2022/08/17 04:45:05;;;;;;;3.70;2.60;;;22.10;89.90;;;22.62;78.72;100291.09;5205590;28;20466;-71
2022/08/17 04:47:39;;;;;;;4.28;2.60;;;22.10;89.60;;;22.65;78.57;100288.41;5205559;28;20049;-71
2022/08/17 04:50:11;;;;;;;3.45;2.45;;;22.10;89.80;;;22.68;78.69;100285.66;5205631;28;20444;-72
2022/08/17 04:52:45;;;;;;;3.33;2.58;;;22.20;89.70;;;22.71;78.32;100280.28;5205511;28;20047;-72
2022/08/17 04:55:18;;;;;;;3.63;2.38;;;22.20;89.40;;;22.74;78.79;100272.22;5205393;28;20548;-72
2022/08/17 04:57:50;;;;;;;3.92;2.75;;;22.20;89.60;;;22.76;78.93;100281.06;5205213;28;20128;-71
2022/08/17 05:00:24;;;;;;;3.25;2.38;;;22.30;89.70;;;22.78;78.50;100297.81;5205073;28;20056;-72
2022/08/17 05:02:57;;;;;;;2.80;2.30;;;22.20;89.40;;;22.80;78.25;100296.00;5205205;28;20121;-71
2022/08/17 05:05:32;;;;;;;3.03;2.28;;;22.30;89.20;;;22.79;77.80;100278.31;5205466;28;20053;-73
2022/08/17 05:08:06;;;;;;;3.22;2.42;;;22.30;88.70;;;22.82;77.70;100278.25;5205214;28;20041;-73
2022/08/17 05:10:39;;;;;;;3.80;2.50;;;22.30;88.60;;;22.84;77.56;100284.41;5205344;28;20139;-73
2022/08/17 05:13:15;;;;;;;3.33;2.58;;;22.30;88.50;;;22.86;77.91;100274.63;5205150;28;20041;-72
2022/08/17 05:15:53;;;;;;;4.15;2.53;;;22.30;88.50;;;22.87;77.56;100280.81;5187527;28;20053;-72
2022/08/17 05:18:26;;;;;;;2.90;2.30;;;22.40;88.40;;;22.86;77.21;100269.31;5205181;28;20531;-73
2022/08/17 05:20:58;;;;;;;3.70;2.60;;;22.30;88.00;;;22.87;77.17;100287.00;5204853;28;20050;-72
2022/08/17 05:23:31;;;;;;;3.00;2.33;;;22.30;87.90;;;22.89;77.23;100279.03;5205052;28;20046;-71
2022/08/17 05:26:04;;;;;;;3.00;2.53;;;22.40;87.80;;;22.89;76.93;100274.56;5204950;28;20526;-71
2022/08/17 05:28:36;;;;;;;4.35;2.65;;;22.40;87.70;;;22.88;77.05;100266.63;5204877;28;20128;-72
2022/08/17 05:31:10;;;;;;;4.00;2.63;;;22.40;87.70;;;22.90;77.13;100271.00;5205038;28;20486;-71
2022/08/17 05:33:43;;;;;;;3.17;2.75;;;22.40;87.70;;;22.93;77.68;100264.72;5207594;28;20154;-77
2022/08/17 05:36:16;;;;;;;3.30;2.33;;;22.40;88.00;;;22.95;78.04;100271.78;5207922;28;20045;-74
2022/08/17 05:38:49;;;;;;;4.00;2.10;;;22.40;88.30;;;22.97;78.27;100261.97;5209191;28;20042;-75
2022/08/17 05:41:21;;;;;;;3.22;2.47;;;22.40;88.50;;;22.99;78.22;100264.59;5208993;28;20045;-72
2022/08/17 05:43:53;;;;;;;3.80;2.42;;;22.50;88.60;;;23.00;78.17;100268.97;5191349;28;20053;-73
2022/08/17 05:46:33;;;;;;;4.18;2.33;;;22.50;88.40;;;23.02;77.69;100277.81;5191576;28;20046;-73
2022/08/17 05:49:08;;;;;;;3.90;2.20;;;22.50;88.10;;;23.04;77.77;100278.63;5191347;28;20413;-76
2022/08/17 05:52:03;;;;;;;3.65;2.33;;;22.50;88.80;;;23.10;77.91;100286.47;5208809;28;20147;-72
2022/08/17 05:54:46;;;;;;;3.97;2.65;;;22.50;88.10;;;23.13;78.04;100286.38;5190566;28;20152;-76
2022/08/17 05:57:42;;;;;;;3.25;2.50;;;22.60;88.50;;;23.18;77.86;100292.47;5208213;28;20041;-70
2022/08/17 06:00:19;;;;;;;3.25;2.30;;;22.70;88.30;;;23.20;77.44;100289.75;5189385;28;20057;-67
2022/08/17 06:03:19;;;;;;;2.50;2.13;;;22.60;87.80;;;23.27;77.76;100283.38;5207336;28;20073;-67
2022/08/17 06:06:06;;;;;;;2.75;2.22;;;22.70;88.00;;;23.35;78.60;100281.41;5206711;28;20049;-67
2022/08/17 06:08:51;;;;;;;4.20;2.70;;;22.80;88.70;;;23.41;77.95;100289.22;5207055;28;20046;-67
2022/08/17 06:11:31;;;;;;;3.03;2.30;;;22.80;88.30;;;23.49;77.76;100278.38;5206886;28;20045;-67
2022/08/17 06:14:26;;;;;;;4.00;2.42;;;22.90;88.00;;;23.54;77.53;100280.03;5207017;28;20063;-66
2022/08/17 06:17:04;;;;;;;2.45;2.25;;;23.00;87.90;;;23.61;77.38;100279.84;5206590;28;20045;-66
2022/08/17 06:19:41;;;;;;;3.05;2.40;;;23.00;87.60;;;23.68;77.61;100281.47;5206979;28;20497;-67
2022/08/17 06:22:16;;;;;;;2.90;2.25;;;23.10;87.90;;;23.73;77.70;100287.50;5207001;28;20587;-65
2022/08/17 06:24:55;;;;;;;3.28;2.40;;;23.20;87.90;;;23.81;78.03;100296.19;5206997;28;20053;-65
2022/08/17 06:27:34;;;;;;;2.88;2.25;;;23.20;88.00;;;23.92;78.24;100315.38;5206695;28;20064;-65
2022/08/17 06:30:12;;;;;;;4.47;2.72;;;23.30;88.10;;;24.00;77.16;100337.34;5206820;28;20046;-64
2022/08/17 06:32:46;;;;;;;3.65;2.88;;;23.40;87.30;;;24.02;77.03;100339.97;5207030;28;20050;-65
2022/08/17 06:35:29;;;;;;;3.97;2.78;;;23.50;87.80;;;24.08;76.81;100330.00;5206518;28;20409;-64
2022/08/17 06:38:14;;;;;;;4.53;2.65;;;23.50;86.90;;;24.19;75.96;100342.13;5206328;28;20045;-66
2022/08/17 06:40:59;;;;;;;4.03;2.85;;;23.60;86.40;;;24.35;75.17;100332.84;5188673;28;20308;-64
2022/08/17 06:43:49;;;;;;;3.53;2.63;;;23.70;85.70;;;24.49;75.17;100329.75;5206745;28;20457;-64
2022/08/17 06:46:35;;;;;;;2.92;2.40;;;23.80;85.50;;;24.61;74.82;100345.38;5205998;28;20065;-65
2022/08/17 06:49:20;;;;;;;5.05;2.83;;;23.90;85.10;;;24.70;74.56;100320.25;5206715;28;20057;-65
2022/08/17 06:52:01;;;;;;;4.30;2.40;;;24.10;85.00;;;24.76;74.17;100328.03;5206953;28;20124;-63
2022/08/17 06:54:45;;;;;;;3.38;2.67;;;24.10;84.60;;;24.83;74.30;100319.81;5206563;28;20099;-64
2022/08/17 06:57:22;;;;;;;3.55;2.50;;;24.20;84.60;;;24.90;74.02;100321.34;5206473;28;20068;-64
2022/08/17 06:59:59;;;;;;;4.50;2.58;;;24.30;84.30;;;24.96;73.85;100324.75;5206535;28;20139;-64
2022/08/17 07:02:45;;;;;;;3.50;2.58;;;24.30;83.80;;;25.00;73.48;100337.94;5206543;28;20132;-64
2022/08/17 07:05:21;;;;;;;3.35;2.40;;;24.30;83.40;;;24.98;72.56;100334.47;5206436;28;20037;-64
2022/08/17 07:08:03;;;;;;;5.80;2.85;;;24.30;82.60;;;24.90;71.89;100331.16;5188426;28;20046;-64
2022/08/17 07:10:43;;;;;;;3.45;2.30;;;24.30;81.90;;;24.88;72.30;100327.66;5206411;28;20136;-64
2022/08/17 07:13:37;;;;;;;3.85;2.67;;;24.30;82.00;;;24.97;72.70;100323.81;5206243;28;20545;-66
2022/08/17 07:16:19;;;;;;;3.97;2.38;;;24.30;82.30;;;25.09;72.61;100321.69;5206007;28;20133;-65
2022/08/17 07:18:55;;;;;;;3.25;2.50;;;24.40;82.40;;;25.20;72.33;100323.13;5206474;28;20041;-65
2022/08/17 07:21:43;;;;;;;4.20;2.70;;;24.50;82.30;;;25.35;72.49;100334.16;5206234;28;20076;-64
2022/08/17 07:24:34;;;;;;;3.42;2.53;;;24.60;82.50;;;25.50;72.31;100343.47;5206036;28;20049;-63
2022/08/17 07:27:11;;;;;;;3.42;2.47;;;24.70;82.30;;;25.56;71.44;100348.59;5205823;28;20355;-64
2022/08/17 07:29:50;;;;;;;3.63;2.58;;;24.80;81.40;;;25.60;70.48;100352.00;5205999;28;20045;-64
2022/08/17 07:32:26;;;;;;;2.95;2.45;;;24.90;80.60;;;25.66;70.22;100351.81;5205992;28;20037;-63
2022/08/17 07:35:33;;;;;;;3.13;2.22;;;24.90;80.30;;;25.69;70.05;100357.94;5206052;28;20116;-63
2022/08/17 07:38:12;;;;;;;3.75;2.63;;;25.00;80.00;;;25.80;70.35;100367.38;5188313;28;20313;-63
2022/08/17 07:40:49;;;;;;;5.60;2.53;;;25.00;80.20;;;25.86;70.66;100365.38;5200572;28;20073;-63
2022/08/17 07:43:25;;;;;;;3.95;2.55;;;25.10;80.40;;;25.90;70.60;100368.81;5191281;28;20038;-63
2022/08/17 07:49:23;;;;;;;4.00;2.47;;;25.10;80.30;;;25.94;70.94;100379.31;5184468;28;20053;-65
2022/08/17 07:52:04;;;;;;;4.00;2.60;;;25.10;80.40;;;25.93;71.38;100368.69;5184234;28;20045;-64
2022/08/17 07:54:38;;;;;;;4.65;2.80;;;25.20;80.50;;;25.98;71.32;100369.41;5185064;28;20100;-64
2022/08/17 07:57:34;;;;;;;3.97;2.70;;;25.20;80.40;;;26.07;71.82;100379.75;5184586;28;20073;-63
2022/08/17 08:00:20;;;;;;;3.80;2.65;;;25.30;80.80;;;26.21;71.98;100385.50;5172224;28;20537;-64
2022/08/17 08:03:17;;;;;;;3.97;3.10;;;25.40;81.10;;;26.34;71.24;100393.03;5197485;28;20034;-64
2022/08/17 08:05:54;;;;;;;5.38;3.33;;;25.50;80.60;;;26.34;71.00;100395.72;5205124;28;20048;-60
2022/08/17 08:08:36;;;;;;;4.38;2.72;;;25.60;80.30;;;26.29;71.14;100392.34;5205110;28;20049;-61
2022/08/17 08:11:14;;;;;;;4.25;3.08;;;25.60;80.10;;;26.22;71.10;100389.91;5205659;28;20049;-62
2022/08/17 08:13:48;;;;;;;5.30;3.40;;;25.50;80.00;;;26.12;71.46;100385.81;5205160;28;20049;-61
2022/08/17 08:16:28;;;;;;;5.20;3.30;;;25.50;80.10;;;26.03;71.54;100374.59;5204777;28;20059;-60
2022/08/17 08:19:01;;;;;;;5.10;3.00;;;25.40;80.00;;;25.93;71.52;100371.38;5205135;28;20395;-61
2022/08/17 08:21:45;;;;;;;4.63;3.00;;;25.40;80.00;;;25.86;71.48;100372.50;5204982;28;20490;-61
2022/08/17 08:24:45;;;;;;;4.05;3.15;;;25.30;80.00;;;25.76;71.94;100377.31;5204714;28;20046;-61
2022/08/17 08:27:29;;;;;;;5.22;3.63;;;25.20;80.20;;;25.68;72.39;100380.19;5204694;28;20502;-61
2022/08/17 08:30:09;;;;;;;5.07;3.33;;;25.10;80.40;;;25.63;72.75;100387.50;5204738;28;20490;-62
2022/08/17 08:33:03;;;;;;;5.00;3.20;;;25.10;80.60;;;25.56;72.69;100387.72;5204760;28;20041;-61
2022/08/17 08:35:44;;;;;;;5.93;3.85;;;25.00;80.80;;;25.48;73.42;100392.44;5204607;28;20060;-60
2022/08/17 08:38:29;;;;;;;5.68;3.38;;;24.90;81.00;;;25.39;73.97;100405.19;5204568;28;20052;-61
2022/08/17 08:41:24;;;;;;;5.45;3.75;;;24.90;81.50;;;25.35;74.44;100407.97;5204614;28;20413;-60
2022/08/17 08:44:10;;;;;;;8.10;4.22;;;24.80;82.00;;;25.29;74.75;100418.84;5204642;28;20069;-59
2022/08/17 08:46:53;;;;;;;6.28;3.60;;;24.70;82.40;;;25.26;75.39;100424.28;5204264;28;20045;-61
2022/08/17 08:49:55;;;;;;;4.80;3.72;;;24.70;82.80;;;25.23;75.44;100424.38;5204439;28;20060;-62
2022/08/17 08:52:47;;;;;;;4.78;3.22;;;24.70;83.00;;;25.21;76.13;100420.88;5204596;28;20048;-60
2022/08/17 08:55:33;;;;;;;6.15;3.85;;;24.70;83.50;;;25.19;76.37;100412.94;5204308;28;20052;-61
2022/08/17 08:58:13;;;;;;;5.50;3.75;;;24.60;83.70;;;25.17;76.21;100422.78;5204228;28;20099;-60
2022/08/17 09:00:52;;;;;;;6.35;4.05;;;24.60;83.80;;;25.14;76.47;100421.06;5204438;28;20056;-63
2022/08/17 09:03:53;;;;;;;7.57;4.55;;;24.60;84.10;;;25.14;76.75;100426.41;5186474;28;20467;-63
2022/08/17 09:06:39;;;;;;;7.78;5.00;;;24.60;84.20;;;25.11;77.21;100423.84;5203971;28;20505;-62
2022/08/17 09:09:26;;;;;;;9.60;5.18;;;24.60;84.50;;;25.07;77.25;100427.53;5204128;28;20049;-63
2022/08/17 09:12:12;;;;;;;8.45;4.78;;;24.60;84.60;;;25.06;77.69;100438.25;5204315;28;20124;-63
2022/08/17 09:14:58;;;;;;;6.80;4.80;;;24.50;84.80;;;25.05;77.90;100426.72;5204286;28;20045;-62
2022/08/17 09:17:37;;;;;;;7.65;4.80;;;24.50;84.90;;;25.04;77.92;100432.03;5203935;28;20049;-63
2022/08/17 09:20:20;;;;;;;7.97;5.13;;;24.50;85.20;;;25.04;78.05;100430.31;5204119;28;20037;-62
2022/08/17 09:23:02;;;;;;;8.95;4.95;;;24.50;85.30;;;25.02;78.51;100429.41;5204098;28;20045;-63
2022/08/17 09:25:48;;;;;;;9.93;5.00;;;24.50;85.60;;;25.04;78.73;100434.69;5204064;28;20045;-62
2022/08/17 09:28:27;;;;;;;7.78;5.60;;;24.50;85.70;;;25.02;78.54;100436.53;5204100;28;20132;-63
2022/08/17 09:31:06;;;;;;;9.57;5.82;;;24.50;85.90;;;25.00;78.96;100443.72;5204072;28;20045;-63
2022/08/17 09:33:44;;;;;;;8.70;5.75;;;24.50;86.70;;;24.98;78.99;100430.44;5204131;28;20053;-63
2022/08/17 09:36:28;;;;;;;7.95;5.30;;;24.40;86.10;;;25.00;78.78;100428.59;5203582;28;20124;-63
2022/08/17 09:39:06;;;;;;;8.85;5.38;;;24.50;86.20;;;25.02;79.04;100434.75;5203915;28;20042;-63
2022/08/17 09:41:45;;;;;;;8.77;5.55;;;24.50;86.30;;;25.02;79.38;100432.09;5204086;28;20049;-63
2022/08/17 09:44:28;;;;;;;9.48;5.43;;;24.50;87.30;;;24.99;80.09;100442.84;5203858;28;20063;-62
2022/08/17 09:47:09;;;;;;;9.85;5.72;;;24.50;87.30;;;24.98;80.83;100451.78;5203694;28;20060;-62
2022/08/17 09:49:47;;;;;;;9.77;5.90;;;24.50;88.30;;;24.95;80.27;100449.19;5203672;28;20052;-68
2022/08/17 09:52:24;;;;;;;10.52;5.35;;;24.40;87.50;;;24.97;79.10;100434.00;5203822;28;20100;-61
2022/08/17 09:54:59;;;;;;;10.68;5.88;;;24.40;86.60;;;24.99;79.42;100431.31;5203835;28;20041;-61
2022/08/17 09:57:50;;;;;;;9.60;6.22;;;24.40;87.00;;;25.03;79.76;100422.28;5203501;28;20048;-63
2022/08/17 10:00:26;;;;;;;10.55;6.47;;;24.50;87.30;;;25.10;80.14;100422.13;5203852;28;20042;-63
2022/08/17 10:03:20;;;;;;;11.23;6.63;;;24.50;87.40;;;25.19;79.59;100420.06;5203635;28;20118;-62
2022/08/17 10:05:56;;;;;;;8.60;5.38;;;24.60;87.30;;;25.36;79.30;100431.06;5203490;28;20048;-62
2022/08/17 10:08:41;;;;;;;10.18;6.00;;;24.70;87.00;;;25.60;78.17;100434.75;5203677;28;20510;-62
2022/08/17 10:12:14;;;;;;;9.00;5.75;;;24.90;86.40;;;25.76;77.47;100427.16;5204033;28;20041;-62
2022/08/17 10:14:26;;;;;;;8.40;5.95;;;25.00;86.00;;;25.84;76.55;100427.75;5203814;28;20431;-62
2022/08/17 10:17:08;;;;;;;8.60;5.63;;;25.10;85.10;;;25.86;75.25;100409.88;5185665;28;20413;-62
2022/08/17 10:19:51;;;;;;;11.95;6.30;;;25.10;84.00;;;25.87;75.18;100408.94;5204327;28;20075;-62
2022/08/17 10:28:17;;;;;;;9.10;6.13;;;25.30;83.70;;;25.99;75.75;100427.22;5207114;28;20060;-63
2022/08/17 10:30:53;;;;;;;9.52;6.05;;;25.30;83.90;;;26.03;75.18;100422.66;5207057;28;20069;-63
2022/08/17 10:33:32;;;;;;;9.73;6.45;;;25.30;83.60;;;26.14;76.14;100429.34;5206937;28;20060;-62
2022/08/17 10:36:13;;;;;;;9.60;6.20;;;25.40;84.30;;;26.49;75.36;100424.59;5212797;23;20052;-80
2022/08/17 10:38:47;;;;;;;8.65;5.72;;;25.60;84.20;;;26.93;74.74;100433.63;5201184;28;20045;-79
2022/08/17 10:41:38;;;;;;;9.85;5.88;;;26.00;84.10;;;27.53;72.94;100437.50;5228219;28;20047;-79
2022/08/17 10:44:17;;;;;;;7.63;5.60;;;26.40;82.90;;;28.03;71.39;100439.00;5234839;28;20055;-79
2022/08/17 10:47:05;;;;;;;9.98;6.40;;;26.80;81.70;;;28.31;69.81;100444.97;5218229;28;20053;-80
2022/08/17 10:49:46;;;;;;;10.18;6.57;;;27.20;80.20;;;28.58;69.08;100445.53;5235632;28;20414;-80
2022/08/17 10:52:47;;;;;;;;;;;27.40;79.10;;;28.85;68.32;100446.09;5218617;28;20410;-78
2022/08/17 10:55:20;;;;;;;10.73;6.32;;;27.70;78.40;;;29.08;67.46;100447.72;5220641;28;20027;-83
2022/08/17 10:58:19;;;;;;;10.02;6.78;;;27.90;77.20;;;29.08;66.48;100450.41;5227838;28;20049;-77
2022/08/17 11:01:01;;;;;;;11.85;7.00;;;28.00;76.00;;;28.88;66.18;100448.59;5244652;28;20076;-80
2022/08/17 11:03:33;;;;;;;9.27;5.90;;;28.00;75.40;;;28.66;66.71;100442.50;5226132;28;20100;-80
2022/08/17 11:06:16;;;;;;;8.90;5.95;;;27.80;75.40;;;28.51;67.51;100446.75;5243688;28;20045;-81
2022/08/17 11:09:28;;;;;;;9.82;6.47;;;27.70;75.90;;;28.28;68.12;100457.56;5227860;28;20595;-80
2022/08/17 11:12:17;;;;;;;11.43;6.50;;;27.50;76.30;;;28.18;69.09;100459.81;5239870;28;20075;-81
2022/08/17 11:15:04;;;;;;;9.73;6.75;;;27.40;77.00;;;28.16;69.11;100455.44;5238890;28;20049;-81
2022/08/17 11:18:02;;;;;;;10.20;6.75;;;27.30;77.10;;;28.09;69.58;100454.81;5219729;28;20053;-81
2022/08/17 11:21:24;;;;;;;9.15;6.78;;;27.30;77.50;;;28.03;69.70;100450.59;5240070;28;20047;-81
2022/08/17 11:24:16;;;;;;;8.95;6.28;;;27.20;77.70;;;28.01;70.09;100441.75;5235174;28;20438;-80